createdAt,value
2023-02-09T00:02:11.503Z,22.40
2023-02-09T00:04:40.593Z,22.37
2023-02-09T00:07:08.243Z,20.10
2023-02-09T00:09:36.082Z,21.57
2023-02-09T00:12:21.545Z,20.50
2023-02-09T00:14:50.711Z,19.60
2023-02-09T00:17:18.286Z,18.20
2023-02-09T00:19:48.370Z,21.07
2023-02-09T00:22:17.061Z,19.03
2023-02-09T00:24:46.125Z,20.70
2023-02-09T00:27:13.771Z,19.60
2023-02-09T00:29:41.570Z,18.77
2023-02-09T00:32:09.345Z,20.33
2023-02-09T00:34:40.488Z,19.63
2023-02-09T00:37:10.188Z,20.37
2023-02-09T00:39:37.922Z,20.10
2023-02-09T00:42:08.449Z,20.93
2023-02-09T00:44:41.567Z,20.40
2023-02-09T00:47:10.156Z,18.63
2023-02-09T00:49:42.523Z,19.83
2023-02-09T00:52:11.678Z,19.63
2023-02-09T00:54:39.347Z,22.10
2023-02-09T00:57:07.121Z,19.53
2023-02-09T00:59:35.835Z,20.90
2023-02-09T01:02:04.836Z,19.27
2023-02-09T01:04:32.591Z,22.87
2023-02-09T01:07:00.352Z,19.10
2023-02-09T01:09:29.727Z,19.73
2023-02-09T01:11:57.407Z,21.87
2023-02-09T01:14:25.242Z,19.80
2023-02-09T01:16:53.000Z,20.63
2023-02-09T01:19:24.628Z,19.37
2023-02-09T01:21:52.652Z,22.47
2023-02-09T01:24:21.505Z,17.40
2023-02-09T01:26:50.949Z,23.97
2023-02-09T01:29:20.383Z,19.83
2023-02-09T01:31:49.496Z,20.57
2023-02-09T01:34:18.978Z,19.83
2023-02-09T01:36:48.346Z,18.63
2023-02-09T01:39:16.181Z,21.87
2023-02-09T01:41:45.015Z,17.87
2023-02-09T01:44:50.265Z,19.00
2023-02-09T01:47:21.135Z,20.57
2023-02-09T01:49:50.981Z,18.83
2023-02-09T01:52:22.075Z,20.73
2023-02-09T01:54:54.963Z,20.53
2023-02-09T01:57:28.501Z,17.70
2023-02-09T02:00:01.349Z,22.37
2023-02-09T02:02:30.572Z,19.53
2023-02-09T02:04:58.367Z,20.43
2023-02-09T02:07:30.429Z,19.37
2023-02-09T02:09:58.674Z,19.40
2023-02-09T02:12:27.137Z,19.43
2023-02-09T02:14:54.802Z,19.17
2023-02-09T02:17:38.489Z,17.93
2023-02-09T02:20:30.891Z,18.33
2023-02-09T02:23:11.427Z,20.30
2023-02-09T02:26:12.397Z,17.97
2023-02-09T02:28:48.249Z,19.30
2023-02-09T02:31:35.895Z,17.63
2023-02-09T02:34:09.215Z,18.07
2023-02-09T02:36:43.413Z,19.47
2023-02-09T02:39:18.141Z,16.93
2023-02-09T02:42:09.720Z,18.20
2023-02-09T02:44:41.674Z,19.13
2023-02-09T02:47:15.016Z,18.47
2023-02-09T02:49:46.110Z,17.67
2023-02-09T02:52:15.480Z,16.03
2023-02-09T02:54:47.625Z,19.03
2023-02-09T02:57:18.836Z,16.70
2023-02-09T02:59:53.241Z,18.67
2023-02-09T03:02:24.402Z,18.23
2023-02-09T03:04:57.352Z,17.40
2023-02-09T03:07:25.601Z,17.47
2023-02-09T03:09:55.192Z,19.13
2023-02-09T03:12:33.346Z,16.03
2023-02-09T03:15:14.770Z,19.70
2023-02-09T03:17:49.166Z,15.70
2023-02-09T03:20:26.731Z,17.33
2023-02-09T03:22:58.681Z,16.73
2023-02-09T03:25:31.445Z,14.37
2023-02-09T03:28:04.317Z,15.57
2023-02-09T03:30:33.910Z,13.87
2023-02-09T03:33:04.827Z,16.07
2023-02-09T03:35:38.284Z,17.37
2023-02-09T03:38:09.373Z,16.53
2023-02-09T03:40:37.268Z,17.23
2023-02-09T03:43:05.069Z,15.47
2023-02-09T03:45:32.924Z,15.40
2023-02-09T03:48:09.234Z,16.90
2023-02-09T03:50:38.630Z,15.00
2023-02-09T03:53:08.773Z,15.60
2023-02-09T03:55:37.133Z,16.80
2023-02-09T03:58:04.823Z,15.40
2023-02-09T04:00:33.701Z,15.83
2023-02-09T04:03:01.609Z,15.80
2023-02-09T04:05:30.437Z,14.00
2023-02-09T04:08:00.379Z,13.67
2023-02-09T04:10:28.440Z,14.23
2023-02-09T04:12:56.118Z,12.93
2023-02-09T04:15:23.831Z,14.37
2023-02-09T04:17:53.800Z,14.70
2023-02-09T04:20:21.518Z,14.97
2023-02-09T04:22:49.264Z,15.67
2023-02-09T04:25:18.608Z,13.27
2023-02-09T04:27:46.263Z,14.87
2023-02-09T04:30:15.387Z,14.73
2023-02-09T04:32:43.137Z,14.13
2023-02-09T04:35:10.893Z,14.53
2023-02-09T04:37:40.856Z,13.87
2023-02-09T04:40:09.907Z,17.03
2023-02-09T04:42:38.839Z,14.17
2023-02-09T04:45:07.316Z,13.73
2023-02-09T04:47:34.935Z,14.63
2023-02-09T04:50:02.529Z,14.30
2023-02-09T04:52:30.217Z,15.10
2023-02-09T04:54:57.872Z,13.87
2023-02-09T04:57:43.412Z,14.00
2023-02-09T05:00:15.125Z,13.40
2023-02-09T05:02:44.462Z,14.23
2023-02-09T05:05:12.156Z,14.43
2023-02-09T05:07:42.254Z,13.53
2023-02-09T05:10:10.370Z,13.73
2023-02-09T05:12:38.198Z,13.17
2023-02-09T05:15:06.373Z,11.07
2023-02-09T05:17:35.549Z,12.93
2023-02-09T05:20:03.555Z,10.93
2023-02-09T05:22:32.508Z,12.37
2023-02-09T05:25:00.249Z,12.17
2023-02-09T05:27:27.900Z,11.73
2023-02-09T05:29:55.752Z,10.70
2023-02-09T05:32:23.510Z,11.73
2023-02-09T05:34:52.605Z,11.33
2023-02-09T05:37:20.330Z,10.60
2023-02-09T05:39:51.005Z,11.10
2023-02-09T05:42:18.736Z,12.13
2023-02-09T05:44:47.808Z,11.07
2023-02-09T05:47:17.351Z,11.53
2023-02-09T05:49:45.122Z,11.60
2023-02-09T05:52:16.619Z,12.47
2023-02-09T05:54:45.830Z,11.97
2023-02-09T05:57:13.803Z,11.43
2023-02-09T05:59:41.547Z,11.57
2023-02-09T06:02:09.623Z,11.20
2023-02-09T06:04:39.479Z,11.10
2023-02-09T06:07:09.918Z,11.70
2023-02-09T06:09:40.300Z,9.77
2023-02-09T06:12:08.117Z,12.20
2023-02-09T06:14:37.606Z,10.57
2023-02-09T06:17:05.385Z,12.10
2023-02-09T06:19:36.649Z,9.03
2023-02-09T06:22:04.734Z,10.80
2023-02-09T06:24:32.437Z,11.80
2023-02-09T06:27:02.439Z,9.50
2023-02-09T06:29:31.251Z,10.37
2023-02-09T06:32:07.212Z,10.40
2023-02-09T06:34:35.488Z,10.20
2023-02-09T06:37:03.675Z,11.30
2023-02-09T06:39:36.330Z,9.23
2023-02-09T06:42:06.581Z,9.20
2023-02-09T06:44:34.292Z,9.47
2023-02-09T06:47:04.682Z,10.43
2023-02-09T06:49:34.772Z,11.83
2023-02-09T06:52:03.978Z,9.30
2023-02-09T06:54:31.675Z,9.33
2023-02-09T06:56:59.380Z,8.50
2023-02-09T06:59:28.380Z,8.53
2023-02-09T07:01:56.156Z,9.37
2023-02-09T07:04:23.979Z,10.07
2023-02-09T07:06:51.731Z,11.43
2023-02-09T07:09:19.765Z,11.77
2023-02-09T07:11:47.577Z,11.70
2023-02-09T07:14:15.924Z,8.50
2023-02-09T07:16:46.065Z,10.37
2023-02-09T07:19:14.101Z,10.43
2023-02-09T07:21:41.841Z,11.07
2023-02-09T07:24:09.692Z,10.10
2023-02-09T07:26:37.367Z,10.27
2023-02-09T07:29:05.073Z,8.17
2023-02-09T07:31:32.928Z,11.00
2023-02-09T07:34:01.993Z,10.97
2023-02-09T07:36:29.800Z,9.93
2023-02-09T07:38:58.222Z,10.77
2023-02-09T07:41:28.883Z,8.57
2023-02-09T07:43:57.451Z,11.27
2023-02-09T07:46:25.622Z,10.60
2023-02-09T07:48:59.460Z,11.33
2023-02-09T07:51:32.358Z,8.70
2023-02-09T07:54:01.580Z,10.17
2023-02-09T07:56:30.043Z,10.37
2023-02-09T07:58:58.364Z,8.93
2023-02-09T08:01:29.087Z,10.77
2023-02-09T08:03:57.525Z,10.53
2023-02-09T08:06:42.131Z,9.37
2023-02-09T08:09:13.428Z,10.63
2023-02-09T08:11:47.392Z,9.67
2023-02-09T08:14:19.785Z,9.10
2023-02-09T08:16:50.379Z,9.60
2023-02-09T08:19:21.095Z,11.60
2023-02-09T08:21:51.204Z,10.43
2023-02-09T08:24:21.585Z,9.97
2023-02-09T08:26:50.631Z,9.27
2023-02-09T08:29:18.269Z,9.00
2023-02-09T08:31:46.508Z,9.53
2023-02-09T08:34:14.643Z,9.73
2023-02-09T08:36:45.290Z,9.53
2023-02-09T08:39:14.398Z,4.90
2023-02-09T08:41:42.159Z,7.50
2023-02-09T08:44:09.933Z,7.37
2023-02-09T08:46:39.026Z,7.63
2023-02-09T08:49:06.939Z,8.37
2023-02-09T08:51:34.796Z,9.77
2023-02-09T08:54:02.711Z,8.83
2023-02-09T08:56:31.760Z,7.60
2023-02-09T08:58:59.479Z,10.00
2023-02-09T09:01:27.401Z,6.80
2023-02-09T09:03:55.641Z,9.50
2023-02-09T09:06:23.499Z,9.87
2023-02-09T09:08:51.992Z,7.93
2023-02-09T09:11:20.776Z,8.53
2023-02-09T09:13:49.925Z,8.70
2023-02-09T09:16:19.436Z,8.50
2023-02-09T09:18:47.210Z,9.10
2023-02-09T09:21:16.826Z,8.67
2023-02-09T09:23:44.857Z,10.00
2023-02-09T09:26:12.877Z,10.23
2023-02-09T09:28:40.563Z,8.60
2023-02-09T09:31:10.535Z,7.60
2023-02-09T09:33:38.373Z,6.67
2023-02-09T09:36:07.842Z,6.67
2023-02-09T09:38:36.630Z,6.23
2023-02-09T09:41:05.195Z,5.63
2023-02-09T09:43:35.808Z,6.20
2023-02-09T09:46:05.144Z,5.77
2023-02-09T09:48:42.029Z,5.60
2023-02-09T09:51:13.954Z,5.93
2023-02-09T09:53:44.270Z,7.77
2023-02-09T09:56:14.023Z,8.87
2023-02-09T09:58:44.876Z,7.20
2023-02-09T10:01:15.036Z,7.63
2023-02-09T10:03:44.728Z,6.53
2023-02-09T10:06:16.620Z,9.30
2023-02-09T10:08:49.887Z,7.33
2023-02-09T10:11:18.772Z,7.07
2023-02-09T10:13:50.754Z,9.77
2023-02-09T10:16:21.882Z,9.07
2023-02-09T10:18:53.262Z,8.07
2023-02-09T10:21:21.172Z,8.00
2023-02-09T10:23:50.885Z,7.50
2023-02-09T10:26:24.263Z,5.33
2023-02-09T10:28:54.153Z,7.47
2023-02-09T10:31:25.340Z,7.80
2023-02-09T10:33:59.287Z,8.90
2023-02-09T10:36:30.264Z,8.93
2023-02-09T10:39:14.392Z,6.67
2023-02-09T10:41:44.371Z,5.37
2023-02-09T10:44:21.063Z,8.13
2023-02-09T10:46:49.530Z,6.90
2023-02-09T10:49:35.261Z,8.40
2023-02-09T10:52:19.040Z,8.13
2023-02-09T10:54:51.456Z,8.97
2023-02-09T10:57:25.039Z,9.57
2023-02-09T10:59:54.546Z,4.80
2023-02-09T11:02:36.979Z,7.13
2023-02-09T11:05:28.831Z,7.83
2023-02-09T11:08:02.112Z,7.03
2023-02-09T11:10:32.968Z,8.53
2023-02-09T11:13:01.024Z,7.40
2023-02-09T11:15:41.640Z,8.67
2023-02-09T11:18:16.562Z,6.20
2023-02-09T11:20:52.593Z,7.53
2023-02-09T11:23:36.913Z,8.40
2023-02-09T11:26:14.479Z,7.23
2023-02-09T11:28:52.764Z,7.97
2023-02-09T11:31:55.301Z,7.57
2023-02-09T11:34:45.391Z,8.87
2023-02-09T11:37:26.191Z,7.50
2023-02-09T11:40:02.759Z,9.37
2023-02-09T11:42:50.617Z,5.77
2023-02-09T11:45:23.500Z,3.83
2023-02-09T11:48:01.315Z,6.47
2023-02-09T11:50:34.780Z,6.43
2023-02-09T11:53:12.754Z,3.70
2023-02-09T11:55:45.145Z,6.60
2023-02-09T11:58:29.051Z,7.93
2023-02-09T12:01:14.585Z,5.20
2023-02-09T12:03:56.259Z,6.13
2023-02-09T12:06:30.252Z,8.33
2023-02-09T12:09:09.518Z,6.20
2023-02-09T12:11:46.431Z,7.67
2023-02-09T12:14:29.181Z,9.00
2023-02-09T12:17:01.615Z,4.90
2023-02-09T12:19:35.815Z,5.53
2023-02-09T12:22:37.121Z,5.20
2023-02-09T12:25:22.816Z,7.53
2023-02-09T12:28:13.504Z,8.20
2023-02-09T12:31:03.225Z,7.80
2023-02-09T12:33:36.261Z,8.30
2023-02-09T12:36:07.437Z,8.67
2023-02-09T12:38:54.525Z,7.30
2023-02-09T12:41:28.104Z,8.57
2023-02-09T12:44:26.917Z,10.20
2023-02-09T12:46:58.030Z,8.00
2023-02-09T12:49:33.771Z,10.53
2023-02-09T12:52:16.264Z,8.93
2023-02-09T12:54:48.900Z,6.90
2023-02-09T12:57:53.633Z,8.27
2023-02-09T13:00:42.102Z,3.97
2023-02-09T13:03:18.920Z,5.77
2023-02-09T13:05:48.827Z,5.77
2023-02-09T13:08:23.539Z,6.97
2023-02-09T13:10:58.393Z,6.40
2023-02-09T13:13:34.772Z,8.73
2023-02-09T13:16:32.383Z,9.20
2023-02-09T13:19:13.402Z,6.90
2023-02-09T13:21:57.185Z,8.00
2023-02-09T13:24:35.369Z,8.73
2023-02-09T13:27:04.419Z,7.73
2023-02-09T13:29:33.772Z,5.73
2023-02-09T13:32:22.353Z,7.27
2023-02-09T13:34:58.597Z,8.73
2023-02-09T13:37:33.820Z,6.47
2023-02-09T13:40:04.069Z,5.67
2023-02-09T13:42:37.087Z,5.97
2023-02-09T13:45:17.737Z,9.03
2023-02-09T13:47:46.166Z,8.00
2023-02-09T13:50:17.354Z,7.13
2023-02-09T13:52:45.296Z,9.87
2023-02-09T13:55:16.379Z,10.10
2023-02-09T13:57:46.126Z,8.73
2023-02-09T14:00:24.687Z,8.80
2023-02-09T14:02:56.202Z,8.10
2023-02-09T14:05:34.275Z,8.87
2023-02-09T14:08:02.969Z,5.20
2023-02-09T14:10:34.736Z,5.10
2023-02-09T14:13:05.571Z,4.83
2023-02-09T14:15:55.982Z,7.00
2023-02-09T14:18:29.888Z,5.73
2023-02-09T14:21:05.262Z,6.23
2023-02-09T14:23:37.856Z,7.23
2023-02-09T14:26:08.060Z,7.73
2023-02-09T14:28:37.868Z,8.07
2023-02-09T14:31:08.063Z,7.50
2023-02-09T14:33:38.514Z,6.97
2023-02-09T14:36:25.706Z,3.03
2023-02-09T14:38:55.244Z,5.70
2023-02-09T14:41:31.436Z,5.10
2023-02-09T14:44:01.644Z,7.00
2023-02-09T14:46:47.555Z,7.10
2023-02-09T14:49:16.233Z,6.90
2023-02-09T14:51:46.325Z,6.30
2023-02-09T14:54:24.266Z,7.53
2023-02-09T14:56:54.582Z,6.27
2023-02-09T14:59:23.277Z,8.20
2023-02-09T15:01:53.111Z,4.50
2023-02-09T15:04:21.171Z,8.23
2023-02-09T15:06:59.500Z,8.50
2023-02-09T15:09:33.801Z,8.20
2023-02-09T15:12:07.698Z,8.57
2023-02-09T15:14:41.453Z,6.10
2023-02-09T15:17:14.975Z,4.90
2023-02-09T15:19:43.572Z,5.53
2023-02-09T15:22:20.808Z,8.67
2023-02-09T15:24:51.786Z,6.37
2023-02-09T15:27:27.043Z,8.83
2023-02-09T15:29:57.979Z,7.53
2023-02-09T15:32:29.881Z,7.20
2023-02-09T15:34:58.593Z,5.63
2023-02-09T15:37:30.581Z,6.93
2023-02-09T15:40:02.270Z,9.13
2023-02-09T15:42:49.313Z,7.73
2023-02-09T15:45:34.055Z,7.33
2023-02-09T15:48:01.975Z,8.90
2023-02-09T15:50:30.846Z,9.33
2023-02-09T15:53:00.154Z,9.23
2023-02-09T15:55:28.639Z,9.37
2023-02-09T15:57:56.978Z,8.60
2023-02-09T16:00:27.136Z,6.80
2023-02-09T16:02:57.755Z,9.67
2023-02-09T16:05:28.120Z,9.27
2023-02-09T16:07:56.463Z,8.73
2023-02-09T16:10:27.496Z,8.23
2023-02-09T16:12:55.756Z,7.07
2023-02-09T16:15:25.882Z,8.27
2023-02-09T16:17:54.274Z,7.20
2023-02-09T16:20:23.722Z,7.80
2023-02-09T16:22:55.120Z,9.07
2023-02-09T16:25:28.221Z,9.93
2023-02-09T16:27:57.484Z,10.47
2023-02-09T16:30:27.532Z,7.70
2023-02-09T16:32:56.830Z,9.10
2023-02-09T16:35:25.808Z,8.03
2023-02-09T16:37:55.971Z,8.47
2023-02-09T16:40:28.583Z,9.53
2023-02-09T16:42:58.229Z,9.27
2023-02-09T16:45:28.614Z,9.20
2023-02-09T16:47:59.785Z,8.97
2023-02-09T16:50:32.931Z,9.73
2023-02-09T16:53:03.213Z,8.77
2023-02-09T16:55:34.119Z,9.47
2023-02-09T16:58:04.601Z,9.30
2023-02-09T17:00:36.943Z,10.73
2023-02-09T17:03:13.968Z,9.53
2023-02-09T17:05:44.491Z,9.57
2023-02-09T17:08:18.052Z,8.73
2023-02-09T17:11:01.309Z,8.73
2023-02-09T17:13:30.933Z,7.60
2023-02-09T17:16:02.315Z,8.90
2023-02-09T17:18:33.357Z,6.43
2023-02-09T17:21:05.370Z,5.37
2023-02-09T17:23:33.133Z,5.43
2023-02-09T17:26:02.987Z,7.83
2023-02-09T17:28:31.664Z,8.53
2023-02-09T17:31:04.825Z,5.63
2023-02-09T17:33:36.264Z,8.00
2023-02-09T17:38:54.421Z,9.03
2023-02-09T17:41:29.570Z,7.33
2023-02-09T17:44:17.557Z,6.53
2023-02-09T17:46:49.604Z,6.70
2023-02-09T17:49:17.433Z,7.50
2023-02-09T17:51:47.448Z,8.23
2023-02-09T17:54:17.756Z,9.27
2023-02-09T17:56:48.376Z,6.37
2023-02-09T17:59:19.707Z,5.30
2023-02-09T18:01:50.652Z,5.70
2023-02-09T18:04:23.447Z,7.70
2023-02-09T18:06:51.500Z,6.60
2023-02-09T18:09:19.321Z,7.33
2023-02-09T18:12:02.102Z,5.23
2023-02-09T18:14:32.926Z,7.43
2023-02-09T18:17:00.901Z,8.00
2023-02-09T18:19:28.676Z,7.77
2023-02-09T18:21:59.252Z,4.47
2023-02-09T18:24:30.046Z,5.33
2023-02-09T18:26:59.380Z,5.53
2023-02-09T18:29:30.136Z,6.27
2023-02-09T18:31:58.909Z,9.43
2023-02-09T18:34:29.069Z,6.40
2023-02-09T18:36:57.126Z,7.80
2023-02-09T18:39:26.689Z,10.13
2023-02-09T18:41:55.221Z,10.17
2023-02-09T18:44:29.334Z,7.93
2023-02-09T18:47:00.340Z,9.80
2023-02-09T18:49:28.231Z,9.83
2023-02-09T18:51:57.009Z,8.40
2023-02-09T18:54:24.949Z,10.03
2023-02-09T18:56:54.557Z,10.83
2023-02-09T18:59:30.856Z,7.60
2023-02-09T19:01:59.074Z,8.30
2023-02-09T19:04:27.082Z,9.83
2023-02-09T19:06:55.328Z,6.90
2023-02-09T19:09:23.205Z,9.63
2023-02-09T19:11:52.022Z,8.77
2023-02-09T19:14:38.113Z,8.93
2023-02-09T19:17:09.335Z,8.13
2023-02-09T19:19:40.223Z,9.57
2023-02-09T19:22:15.061Z,8.30
2023-02-09T19:24:43.014Z,10.13
2023-02-09T19:27:11.577Z,9.10
2023-02-09T19:29:41.853Z,10.70
2023-02-09T19:32:12.630Z,7.40
2023-02-09T19:34:45.393Z,6.67
2023-02-09T19:37:16.267Z,9.07
2023-02-09T19:39:52.693Z,9.33
2023-02-09T19:42:21.567Z,10.37
2023-02-09T19:44:50.224Z,10.77
2023-02-09T19:47:25.490Z,7.80
2023-02-09T19:49:53.530Z,10.07
2023-02-09T19:52:21.462Z,10.07
2023-02-09T19:54:49.954Z,10.73
2023-02-09T19:57:17.747Z,10.20
2023-02-09T19:59:45.527Z,11.27
2023-02-09T20:02:13.937Z,10.53
2023-02-09T20:04:45.872Z,10.77
2023-02-09T20:07:14.813Z,10.63
2023-02-09T20:09:43.015Z,10.23
2023-02-09T20:12:10.789Z,11.93
2023-02-09T20:14:38.545Z,13.23
2023-02-09T20:17:06.212Z,11.83
2023-02-09T20:19:36.877Z,13.47
2023-02-09T20:22:06.038Z,15.03
2023-02-09T20:24:34.718Z,12.40
2023-02-09T20:27:02.522Z,13.37
2023-02-09T20:29:30.308Z,11.93
2023-02-09T20:31:58.527Z,13.30
2023-02-09T20:34:26.936Z,10.33
2023-02-09T20:36:58.254Z,12.43
2023-02-09T20:39:27.828Z,10.60
2023-02-09T20:42:16.697Z,11.23
2023-02-09T20:45:03.178Z,12.03
2023-02-09T20:47:31.119Z,12.90
2023-02-09T20:50:00.420Z,12.40
2023-02-09T20:52:31.288Z,11.57
2023-02-09T20:55:00.633Z,13.10
2023-02-09T20:57:30.216Z,11.87
2023-02-09T20:59:58.091Z,12.27
2023-02-09T21:02:28.970Z,13.27
2023-02-09T21:04:57.917Z,11.93
2023-02-09T21:07:26.429Z,10.73
2023-02-09T21:09:56.657Z,13.67
2023-02-09T21:12:25.864Z,10.77
2023-02-09T21:14:53.606Z,9.67
2023-02-09T21:17:22.186Z,13.97
2023-02-09T21:19:50.119Z,11.23
2023-02-09T21:22:18.273Z,11.27
2023-02-09T21:24:46.159Z,9.03
2023-02-09T21:27:14.451Z,10.87
2023-02-09T21:29:43.403Z,12.30
2023-02-09T21:32:13.967Z,14.33
2023-02-09T21:34:41.631Z,17.17
2023-02-09T21:37:12.723Z,11.17
2023-02-09T21:39:40.489Z,12.10
2023-02-09T21:42:29.434Z,12.17
2023-02-09T21:44:59.411Z,12.47
2023-02-09T21:47:28.294Z,12.23
2023-02-09T21:49:56.055Z,12.70
2023-02-09T21:52:24.620Z,13.23
2023-02-09T21:54:53.757Z,14.47
2023-02-09T21:57:23.157Z,12.97
2023-02-09T21:59:50.868Z,13.97
2023-02-09T22:02:21.583Z,15.43
2023-02-09T22:04:49.746Z,13.07
2023-02-09T22:07:17.622Z,15.13
2023-02-09T22:09:45.275Z,13.60
2023-02-09T22:12:13.001Z,14.83
2023-02-09T22:14:40.661Z,15.97
2023-02-09T22:17:08.609Z,16.47
2023-02-09T22:19:37.769Z,13.27
2023-02-09T22:22:05.637Z,16.03
2023-02-09T22:24:34.742Z,16.50
2023-02-09T22:27:02.552Z,14.77
2023-02-09T22:29:33.092Z,17.07
2023-02-09T22:32:00.810Z,14.90
2023-02-09T22:34:28.421Z,15.87
2023-02-09T22:36:57.426Z,15.67
2023-02-09T22:39:25.158Z,14.37
2023-02-09T22:41:57.885Z,16.60
2023-02-09T22:44:29.786Z,16.87
2023-02-09T22:46:58.678Z,15.67
2023-02-09T22:49:26.563Z,15.97
2023-02-09T22:51:54.199Z,17.23
2023-02-09T22:54:23.493Z,16.83
2023-02-09T22:56:52.218Z,14.60
2023-02-09T22:59:20.118Z,15.97
2023-02-09T23:01:48.515Z,15.87
2023-02-09T23:04:16.374Z,16.60
2023-02-09T23:06:44.147Z,18.57
2023-02-09T23:09:13.191Z,14.73
2023-02-09T23:11:44.102Z,18.43
2023-02-09T23:14:14.297Z,18.13
2023-02-09T23:16:44.206Z,18.20
2023-02-09T23:19:15.343Z,18.67
2023-02-09T23:21:44.653Z,19.47
2023-02-09T23:24:13.398Z,17.70
2023-02-09T23:26:45.445Z,17.70
2023-02-09T23:29:15.663Z,19.33
2023-02-09T23:31:44.496Z,19.77
2023-02-09T23:34:15.120Z,18.83
2023-02-09T23:36:43.163Z,18.07
2023-02-09T23:39:15.258Z,16.87
2023-02-09T23:41:44.637Z,22.37
2023-02-09T23:44:13.117Z,19.60
2023-02-09T23:46:41.639Z,18.57
2023-02-09T23:49:09.370Z,18.73
2023-02-09T23:51:37.391Z,19.07
2023-02-09T23:54:07.027Z,18.03
2023-02-09T23:56:37.053Z,17.30
2023-02-09T23:59:07.390Z,18.07
